Kezdőlap
METAR-TAF:

METAR-TAF

Repülőterek :

Edmonton, Alberta, Kanada

földrajzi szélesség: 53-18N, földrajzi hosszúság: 113-35W, magasság: 715 m

Jelenlegi meteorológiai megfigyelések

A jelentés 1 órával és 29 perccel ezelõtt készült, 10:00 UTC
Nyugati szél 5 kt
Hőmérséklet 0°C
Páratartalom 74%
Légköri nyomás 1027 hPa
Látótávolság: 24.1 km
Kevés felhő 25000 lábon

METAR: CYEG 231000Z 26005KT 15SM FEW250 M00/M04 A3032 RMK CI1 CI TR SLP297

Idő: 05:29 (11:29 UTC)

Előrejelzés

A jelentés 2 órával és 51 perccel ezelõtt készült, 08:38 UTC
Az előrejelzés 23-én 09 óra UTC és 24-én 06 óra UTC között érvényes
Nyugati szél 5 kt
Látótávolság: 10 km
Kevés felhő 25000 lábon
23-én 1800 órától UTC szerint
Nyugati szél 8 kt
Látótávolság: 10 km
Kevés felhő 5000 lábon

TAF: CYEG 230838Z 2309/2406 26005KT P6SM FEW250 FM231800 28008KT P6SM FEW050 RMK NXT FCST BY 231200Z

Meteorológiai megfigyelések és előrejelzések több, mint 4000 repülőtéren (METAR és TAF jelentéseket).

A térképen piros és sárga pontok jelzik az elérhető meteorológiai állomásokat.

Mozgassa az egeret a pont fölött, hogy megjelenjen az állomás neve.

Azután kattintson az időjárási megfigyelések és előrejelzések megtekintéséhez.

A térkép megváltoztatása: kattintson a fekete keresztel jelölt zöld gombra ráközelítéshez, a vonallal jelölt zöld gombra távolításhoz, vagy a zöld nyilakra a szomszédos térképek eléréséhez.


METAR-TAF: